createdAt,value
2023-01-05T00:01:58.379Z,6.04
2023-01-05T00:04:25.047Z,6.04
2023-01-05T00:06:52.324Z,6.02
2023-01-05T00:09:19.227Z,5.98
2023-01-05T00:12:05.991Z,5.92
2023-01-05T00:14:51.871Z,5.89
2023-01-05T00:17:37.950Z,5.88
2023-01-05T00:20:24.832Z,5.85
2023-01-05T00:22:52.551Z,5.85
2023-01-05T00:25:20.975Z,5.83
2023-01-05T00:27:50.616Z,5.79
2023-01-05T00:30:18.848Z,5.83
2023-01-05T00:32:45.722Z,5.86
2023-01-05T00:35:13.671Z,5.87
2023-01-05T00:37:40.222Z,5.87
2023-01-05T00:40:07.611Z,5.88
2023-01-05T00:42:34.106Z,5.90
2023-01-05T00:45:00.568Z,5.91
2023-01-05T00:47:27.224Z,5.90
2023-01-05T00:49:53.658Z,5.88
2023-01-05T00:52:20.104Z,5.90
2023-01-05T00:54:46.535Z,5.89
2023-01-05T00:57:13.475Z,5.89
2023-01-05T00:59:39.958Z,5.87
2023-01-05T01:02:06.788Z,5.79
2023-01-05T01:04:34.122Z,5.79
2023-01-05T01:07:00.687Z,5.82
2023-01-05T01:09:27.390Z,5.78
2023-01-05T01:11:53.859Z,5.82
2023-01-05T01:14:20.648Z,5.83
2023-01-05T01:16:47.189Z,5.84
2023-01-05T01:19:14.973Z,5.84
2023-01-05T01:21:41.703Z,5.83
2023-01-05T01:24:08.327Z,5.79
2023-01-05T01:26:34.853Z,5.75
2023-01-05T01:29:01.304Z,5.75
2023-01-05T01:31:27.745Z,5.76
2023-01-05T01:33:54.235Z,5.77
2023-01-05T01:36:20.702Z,5.78
2023-01-05T01:38:47.134Z,5.80
2023-01-05T01:41:14.136Z,5.82
2023-01-05T01:43:51.288Z,5.84
2023-01-05T01:46:18.870Z,5.84
2023-01-05T01:48:47.935Z,5.70
2023-01-05T01:51:24.638Z,5.56
2023-01-05T01:53:53.321Z,5.52
2023-01-05T01:56:21.326Z,5.57
2023-01-05T01:58:48.455Z,5.63
2023-01-05T02:01:15.247Z,5.69
2023-01-05T02:03:42.083Z,5.75
2023-01-05T02:06:08.944Z,5.81
2023-01-05T02:08:35.542Z,5.87
2023-01-05T02:11:22.902Z,5.93
2023-01-05T02:14:01.416Z,5.98
2023-01-05T02:16:43.478Z,6.03
2023-01-05T02:19:13.386Z,6.06
2023-01-05T02:21:42.893Z,6.08
2023-01-05T02:24:09.317Z,6.02
2023-01-05T02:26:35.746Z,6.03
2023-01-05T02:29:08.037Z,6.07
2023-01-05T02:31:43.754Z,6.07
2023-01-05T02:34:30.462Z,6.09
2023-01-05T02:37:04.193Z,6.09
2023-01-05T02:39:30.599Z,5.96
2023-01-05T02:42:05.484Z,5.99
2023-01-05T02:44:33.200Z,5.90
2023-01-05T02:47:25.972Z,5.88
2023-01-05T02:49:54.012Z,5.93
2023-01-05T02:52:21.381Z,5.93
2023-01-05T02:54:55.042Z,5.97
2023-01-05T02:57:47.089Z,5.90
2023-01-05T03:00:17.102Z,5.82
2023-01-05T03:02:45.583Z,5.83
2023-01-05T03:05:16.423Z,5.81
2023-01-05T03:07:43.689Z,5.86
2023-01-05T03:10:29.974Z,5.93
2023-01-05T03:13:16.313Z,6.03
2023-01-05T03:15:44.063Z,6.11
2023-01-05T03:18:12.086Z,6.21
2023-01-05T03:20:40.311Z,6.27
2023-01-05T03:23:28.392Z,6.34
2023-01-05T03:26:13.837Z,6.38
2023-01-05T03:29:10.844Z,6.41
2023-01-05T03:32:06.921Z,6.44
2023-01-05T03:35:04.199Z,6.44
2023-01-05T03:37:33.173Z,6.42
2023-01-05T03:40:00.317Z,6.48
2023-01-05T03:42:29.073Z,6.51
2023-01-05T03:44:55.610Z,6.52
2023-01-05T03:47:23.179Z,6.52
2023-01-05T03:49:51.003Z,6.53
2023-01-05T03:52:17.554Z,6.53
2023-01-05T03:54:44.025Z,6.51
2023-01-05T03:57:10.527Z,6.54
2023-01-05T03:59:36.982Z,6.51
2023-01-05T04:02:04.839Z,6.56
2023-01-05T04:04:31.379Z,6.58
2023-01-05T04:06:57.800Z,6.58
2023-01-05T04:09:24.457Z,6.60
2023-01-05T04:11:50.923Z,6.61
2023-01-05T04:14:17.349Z,6.60
2023-01-05T04:16:43.789Z,6.62
2023-01-05T04:19:10.512Z,6.67
2023-01-05T04:21:37.173Z,6.70
2023-01-05T04:24:03.771Z,6.68
2023-01-05T04:26:30.199Z,6.57
2023-01-05T04:28:56.650Z,6.48
2023-01-05T04:31:23.126Z,6.47
2023-01-05T04:33:49.676Z,6.45
2023-01-05T04:36:16.196Z,6.49
2023-01-05T04:38:42.644Z,6.55
2023-01-05T04:41:09.124Z,6.58
2023-01-05T04:43:35.620Z,6.52
2023-01-05T04:46:02.116Z,6.51
2023-01-05T04:48:28.625Z,6.54
2023-01-05T04:50:55.943Z,6.54
2023-01-05T04:53:23.413Z,6.59
2023-01-05T04:55:50.596Z,6.63
2023-01-05T04:58:17.191Z,6.70
2023-01-05T05:00:43.640Z,6.83
2023-01-05T05:03:10.172Z,6.95
2023-01-05T05:05:36.694Z,7.05
2023-01-05T05:08:03.132Z,7.21
2023-01-05T05:10:29.684Z,7.34
2023-01-05T05:12:56.126Z,7.44
2023-01-05T05:15:22.606Z,7.50
2023-01-05T05:17:49.028Z,7.56
2023-01-05T05:20:15.530Z,7.59
2023-01-05T05:22:42.016Z,7.68
2023-01-05T05:25:08.753Z,7.78
2023-01-05T05:27:35.243Z,7.89
2023-01-05T05:30:01.748Z,7.91
2023-01-05T05:32:28.210Z,7.91
2023-01-05T05:34:54.636Z,7.95
2023-01-05T05:37:21.087Z,8.03
2023-01-05T05:39:47.543Z,8.08
2023-01-05T05:42:14.037Z,8.12
2023-01-05T05:44:40.565Z,8.10
2023-01-05T05:47:07.182Z,8.12
2023-01-05T05:49:33.694Z,8.14
2023-01-05T05:52:00.121Z,8.17
2023-01-05T05:54:26.743Z,8.22
2023-01-05T05:56:53.199Z,8.23
2023-01-05T05:59:19.682Z,8.30
2023-01-05T06:01:46.234Z,8.38
2023-01-05T06:04:12.763Z,8.43
2023-01-05T06:06:39.875Z,8.45
2023-01-05T06:09:06.411Z,8.51
2023-01-05T06:11:33.022Z,8.54
2023-01-05T06:13:59.558Z,8.57
2023-01-05T06:16:26.110Z,8.56
2023-01-05T06:18:52.574Z,8.56
2023-01-05T06:21:21.395Z,8.55
2023-01-05T06:23:48.269Z,8.55
2023-01-05T06:26:14.776Z,8.56
2023-01-05T06:28:41.218Z,8.62
2023-01-05T06:31:07.858Z,8.56
2023-01-05T06:33:34.407Z,8.56
2023-01-05T06:36:00.899Z,8.58
2023-01-05T06:38:27.411Z,8.63
2023-01-05T06:40:54.707Z,8.64
2023-01-05T06:43:21.595Z,8.68
2023-01-05T06:45:48.174Z,8.69
2023-01-05T06:48:14.663Z,8.74
2023-01-05T06:50:41.136Z,8.73
2023-01-05T06:53:07.928Z,8.71
2023-01-05T06:55:34.431Z,8.69
2023-01-05T06:58:01.628Z,8.69
2023-01-05T07:00:28.629Z,8.67
2023-01-05T07:02:55.142Z,8.68
2023-01-05T07:05:23.305Z,8.72
2023-01-05T07:07:50.071Z,8.73
2023-01-05T07:10:16.563Z,8.76
2023-01-05T07:12:43.030Z,8.75
2023-01-05T07:15:09.797Z,8.76
2023-01-05T07:17:36.726Z,8.74
2023-01-05T07:20:04.056Z,8.77
2023-01-05T07:22:31.042Z,8.76
2023-01-05T07:24:58.883Z,8.73
2023-01-05T07:27:25.695Z,8.76
2023-01-05T07:29:52.126Z,8.74
2023-01-05T07:32:18.854Z,8.77
2023-01-05T07:34:54.953Z,8.78
2023-01-05T07:37:23.331Z,8.78
2023-01-05T07:39:49.759Z,8.79
2023-01-05T07:42:16.240Z,8.78
2023-01-05T07:44:42.735Z,8.75
2023-01-05T07:47:09.313Z,8.77
2023-01-05T07:49:35.744Z,8.81
2023-01-05T07:52:02.396Z,8.82
2023-01-05T07:54:28.856Z,8.82
2023-01-05T07:56:55.731Z,8.85
2023-01-05T07:59:22.199Z,8.87
2023-01-05T08:01:48.847Z,8.88
2023-01-05T08:04:15.463Z,8.88
2023-01-05T08:06:41.935Z,8.87
2023-01-05T08:09:26.741Z,8.86
2023-01-05T08:11:53.160Z,8.91
2023-01-05T08:14:19.625Z,8.89
2023-01-05T08:16:46.138Z,8.87
2023-01-05T08:19:12.733Z,8.90
2023-01-05T08:21:39.241Z,8.88
2023-01-05T08:24:06.212Z,8.84
2023-01-05T08:26:32.761Z,8.83
2023-01-05T08:28:59.423Z,8.79
2023-01-05T08:31:27.396Z,8.82
2023-01-05T08:33:57.929Z,8.77
2023-01-05T08:36:24.528Z,8.78
2023-01-05T08:38:52.165Z,8.80
2023-01-05T08:41:19.678Z,8.79
2023-01-05T08:43:50.600Z,8.81
2023-01-05T08:46:17.499Z,8.79
2023-01-05T08:48:44.066Z,8.83
2023-01-05T08:51:10.543Z,8.81
2023-01-05T08:53:37.029Z,8.90
2023-01-05T08:56:03.610Z,8.90
2023-01-05T08:58:30.161Z,8.93
2023-01-05T09:00:56.775Z,8.95
2023-01-05T09:03:23.317Z,8.95
2023-01-05T09:05:52.692Z,8.95
2023-01-05T09:08:19.140Z,8.97
2023-01-05T09:10:45.664Z,8.93
2023-01-05T09:13:12.125Z,8.85
2023-01-05T09:15:38.693Z,8.83
2023-01-05T09:18:05.251Z,8.70
2023-01-05T09:20:36.191Z,8.38
2023-01-05T09:23:06.147Z,8.00
2023-01-05T09:25:32.606Z,7.58
2023-01-05T09:27:59.078Z,7.24
2023-01-05T09:30:25.639Z,7.04
2023-01-05T09:32:52.143Z,7.02
2023-01-05T09:35:18.575Z,7.08
2023-01-05T09:37:45.105Z,7.16
2023-01-05T09:40:12.802Z,7.19
2023-01-05T09:42:41.217Z,7.22
2023-01-05T09:45:07.928Z,7.28
2023-01-05T09:47:42.213Z,7.36
2023-01-05T09:50:17.066Z,7.41
2023-01-05T09:52:43.514Z,7.40
2023-01-05T09:55:13.028Z,7.29
2023-01-05T09:57:40.265Z,7.06
2023-01-05T10:00:08.391Z,7.02
2023-01-05T10:02:43.500Z,6.94
2023-01-05T10:05:11.934Z,6.89
2023-01-05T10:07:47.843Z,6.84
2023-01-05T10:10:24.788Z,6.83
2023-01-05T10:13:04.499Z,6.87
2023-01-05T10:15:34.217Z,6.92
2023-01-05T10:18:02.738Z,6.91
2023-01-05T10:20:40.354Z,6.77
2023-01-05T10:23:14.867Z,6.70
2023-01-05T10:25:46.187Z,6.72
2023-01-05T10:28:15.673Z,6.77
2023-01-05T10:30:57.355Z,6.78
2023-01-05T10:33:35.648Z,6.80
2023-01-05T10:36:48.797Z,6.77
2023-01-05T10:39:11.729Z,6.83
2023-01-05T10:41:38.231Z,6.90
2023-01-05T10:44:13.702Z,6.90
2023-01-05T10:46:52.143Z,6.88
2023-01-05T10:49:26.669Z,6.92
2023-01-05T10:51:56.685Z,6.98
2023-01-05T10:54:29.597Z,7.03
2023-01-05T10:56:56.087Z,7.01
2023-01-05T10:59:22.581Z,6.97
2023-01-05T11:01:49.841Z,6.97
2023-01-05T11:04:33.977Z,6.89
2023-01-05T11:07:05.527Z,6.85
2023-01-05T11:09:32.264Z,6.83
2023-01-05T11:12:00.044Z,6.77
2023-01-05T11:14:27.833Z,6.80
2023-01-05T11:16:55.988Z,6.81
2023-01-05T11:19:26.255Z,6.75
2023-01-05T11:21:58.133Z,6.78
2023-01-05T11:24:30.263Z,6.76
2023-01-05T11:27:01.687Z,6.71
2023-01-05T11:29:28.719Z,6.76
2023-01-05T11:31:57.832Z,6.78
2023-01-05T11:34:30.232Z,6.76
2023-01-05T11:37:02.592Z,6.76
2023-01-05T11:39:36.821Z,6.81
2023-01-05T11:42:25.345Z,6.85
2023-01-05T11:44:52.673Z,6.86
2023-01-05T11:47:43.917Z,6.88
2023-01-05T11:50:13.908Z,6.85
2023-01-05T11:52:45.480Z,6.81
2023-01-05T11:55:24.123Z,6.86
2023-01-05T11:57:59.984Z,6.82
2023-01-05T12:00:42.303Z,6.83
2023-01-05T12:03:29.092Z,6.88
2023-01-05T12:05:57.246Z,6.91
2023-01-05T12:08:28.134Z,7.02
2023-01-05T12:11:07.669Z,7.03
2023-01-05T12:14:09.651Z,7.03
2023-01-05T12:16:36.175Z,7.08
2023-01-05T12:19:11.562Z,7.06
2023-01-05T12:21:39.862Z,7.05
2023-01-05T12:24:06.376Z,7.05
2023-01-05T12:26:42.009Z,7.04
2023-01-05T12:31:02.846Z,7.08
2023-01-05T12:35:17.084Z,7.07
2023-01-05T12:37:43.512Z,7.08
2023-01-05T12:40:22.287Z,7.09
2023-01-05T12:42:56.965Z,7.14
2023-01-05T12:45:40.450Z,7.12
2023-01-05T12:48:24.015Z,7.19
2023-01-05T12:51:02.956Z,7.22
2023-01-05T12:53:35.563Z,7.25
2023-01-05T12:56:07.865Z,7.26
2023-01-05T12:58:39.557Z,7.25
2023-01-05T13:01:09.142Z,7.23
2023-01-05T13:03:48.170Z,7.22
2023-01-05T13:06:22.805Z,7.26
2023-01-05T13:09:15.248Z,7.25
2023-01-05T13:11:44.069Z,7.28
2023-01-05T13:14:13.568Z,7.30
2023-01-05T13:16:41.866Z,7.34
2023-01-05T13:19:27.210Z,7.30
2023-01-05T13:21:54.663Z,7.36
2023-01-05T13:24:27.981Z,7.44
2023-01-05T13:26:54.945Z,7.45
2023-01-05T13:29:26.287Z,7.43
2023-01-05T13:31:52.742Z,7.46
2023-01-05T13:34:31.404Z,7.49
2023-01-05T13:37:07.208Z,7.54
2023-01-05T13:39:49.021Z,7.56
2023-01-05T13:42:15.438Z,7.58
2023-01-05T13:45:01.909Z,7.59
2023-01-05T13:47:45.873Z,7.60
2023-01-05T13:50:31.597Z,7.57
2023-01-05T13:53:03.381Z,7.62
2023-01-05T13:55:31.287Z,7.63
2023-01-05T13:57:58.807Z,7.61
2023-01-05T14:00:36.139Z,7.64
2023-01-05T14:03:08.052Z,7.62
2023-01-05T14:05:41.004Z,7.62
2023-01-05T14:08:17.518Z,7.56
2023-01-05T14:11:03.887Z,7.57
2023-01-05T14:13:42.628Z,7.59
2023-01-05T14:16:27.853Z,7.55
2023-01-05T14:19:02.178Z,7.54
2023-01-05T14:21:47.301Z,7.53
2023-01-05T14:24:29.136Z,7.56
2023-01-05T14:27:00.548Z,7.57
2023-01-05T14:29:47.233Z,7.56
2023-01-05T14:32:15.210Z,7.55
2023-01-05T14:34:48.735Z,7.55
2023-01-05T14:37:32.876Z,7.51
2023-01-05T14:40:04.290Z,7.48
2023-01-05T14:42:39.648Z,7.48
2023-01-05T14:45:07.791Z,7.44
2023-01-05T14:47:34.283Z,7.47
2023-01-05T14:50:03.995Z,7.45
2023-01-05T14:52:49.283Z,7.51
2023-01-05T14:55:37.086Z,7.46
2023-01-05T14:58:11.531Z,7.40
2023-01-05T15:03:25.280Z,7.40
2023-01-05T15:05:57.875Z,7.38
2023-01-05T15:08:35.298Z,7.36
2023-01-05T15:11:19.801Z,7.36
2023-01-05T15:14:06.162Z,7.35
2023-01-05T15:16:35.467Z,7.36
2023-01-05T15:19:20.607Z,7.40
2023-01-05T15:21:59.650Z,7.36
2023-01-05T15:24:44.876Z,7.40
2023-01-05T15:27:11.313Z,7.34
2023-01-05T15:29:46.392Z,7.26
2023-01-05T15:32:20.299Z,7.24
2023-01-05T15:34:56.249Z,7.23
2023-01-05T15:37:31.996Z,7.29
2023-01-05T15:40:03.918Z,7.27
2023-01-05T15:42:44.036Z,7.22
2023-01-05T15:45:43.212Z,7.19
2023-01-05T15:48:20.639Z,7.25
2023-01-05T15:50:49.109Z,7.31
2023-01-05T15:53:27.979Z,7.29
2023-01-05T15:55:54.901Z,7.29
2023-01-05T15:58:22.436Z,7.34
2023-01-05T16:01:02.483Z,7.31
2023-01-05T16:03:30.799Z,7.27
2023-01-05T16:05:59.315Z,7.22
2023-01-05T16:08:26.118Z,7.26
2023-01-05T16:10:55.983Z,7.26
2023-01-05T16:13:45.874Z,7.30
2023-01-05T16:16:43.217Z,7.23
2023-01-05T16:19:07.195Z,7.06
2023-01-05T16:21:46.282Z,6.99
2023-01-05T16:24:22.402Z,6.92
2023-01-05T16:26:48.956Z,6.87
2023-01-05T16:29:21.250Z,6.87
2023-01-05T16:31:55.035Z,6.86
2023-01-05T16:34:25.829Z,6.84
2023-01-05T16:37:02.708Z,6.84
2023-01-05T16:39:34.879Z,6.79
2023-01-05T16:42:35.436Z,6.78
2023-01-05T16:45:02.040Z,6.73
2023-01-05T16:47:38.481Z,6.76
2023-01-05T16:50:24.992Z,6.81
2023-01-05T16:52:53.007Z,6.84
2023-01-05T16:55:32.957Z,6.78
2023-01-05T16:57:59.992Z,6.79
2023-01-05T17:00:26.820Z,6.79
2023-01-05T17:02:54.338Z,6.80
2023-01-05T17:05:28.158Z,6.65
2023-01-05T17:08:03.886Z,6.52
2023-01-05T17:10:30.781Z,6.52
2023-01-05T17:13:03.435Z,6.54
2023-01-05T17:15:32.295Z,6.52
2023-01-05T17:17:58.981Z,6.57
2023-01-05T17:20:27.371Z,6.65
2023-01-05T17:22:54.748Z,6.70
2023-01-05T17:25:21.566Z,6.74
2023-01-05T17:27:48.007Z,6.83
2023-01-05T17:30:23.653Z,6.88
2023-01-05T17:32:50.193Z,6.98
2023-01-05T17:35:18.768Z,6.99
2023-01-05T17:37:46.543Z,7.08
2023-01-05T17:40:16.883Z,7.13
2023-01-05T17:42:43.500Z,7.14
2023-01-05T17:45:28.447Z,7.19
2023-01-05T17:47:55.177Z,7.20
2023-01-05T17:53:02.915Z,7.28
2023-01-05T17:55:30.268Z,7.27
2023-01-05T17:57:57.779Z,7.30
2023-01-05T18:00:25.484Z,7.30
2023-01-05T18:02:52.653Z,7.28
2023-01-05T18:05:19.390Z,7.29
2023-01-05T18:07:45.843Z,7.30
2023-01-05T18:10:17.463Z,7.28
2023-01-05T18:12:44.026Z,7.28
2023-01-05T18:15:10.955Z,7.26
2023-01-05T18:17:37.799Z,7.18
2023-01-05T18:20:04.910Z,7.22
2023-01-05T18:25:03.171Z,7.26
2023-01-05T18:27:29.651Z,7.25
2023-01-05T18:29:56.751Z,7.21
2023-01-05T18:32:23.827Z,7.20
2023-01-05T18:34:50.246Z,7.16
2023-01-05T18:37:23.642Z,7.11
2023-01-05T18:39:50.059Z,7.13
2023-01-05T18:42:16.582Z,7.15
2023-01-05T18:44:43.042Z,7.12
2023-01-05T18:47:09.500Z,7.06
2023-01-05T18:49:35.980Z,7.02
2023-01-05T18:52:03.187Z,6.97
2023-01-05T18:54:29.927Z,6.89
2023-01-05T18:56:56.470Z,6.85
2023-01-05T18:59:22.995Z,6.79
2023-01-05T19:01:49.443Z,6.74
2023-01-05T19:04:16.527Z,6.61
2023-01-05T19:06:43.177Z,6.54
2023-01-05T19:09:10.696Z,6.54
2023-01-05T19:11:37.876Z,6.51
2023-01-05T19:14:05.281Z,6.47
2023-01-05T19:16:33.591Z,6.46
2023-01-05T19:19:05.430Z,6.37
2023-01-05T19:21:33.125Z,6.39
2023-01-05T19:24:00.146Z,6.39
2023-01-05T19:26:28.548Z,6.39
2023-01-05T19:28:55.157Z,6.40
2023-01-05T19:31:24.608Z,6.39
2023-01-05T19:33:51.246Z,6.38
2023-01-05T19:36:18.642Z,6.40
2023-01-05T19:38:45.846Z,6.38
2023-01-05T19:41:12.648Z,6.37
2023-01-05T19:43:42.384Z,6.33
2023-01-05T19:46:12.967Z,6.31
2023-01-05T19:48:39.845Z,6.22
2023-01-05T19:51:11.647Z,6.19
2023-01-05T19:53:39.100Z,6.18
2023-01-05T19:56:05.719Z,6.21
2023-01-05T19:58:32.513Z,6.21
2023-01-05T20:01:04.760Z,6.21
2023-01-05T20:03:31.199Z,6.18
2023-01-05T20:06:08.727Z,6.18
2023-01-05T20:08:35.818Z,6.18
2023-01-05T20:11:09.851Z,6.21
2023-01-05T20:13:36.419Z,6.15
2023-01-05T20:16:07.357Z,6.13
2023-01-05T20:18:33.912Z,6.15
2023-01-05T20:21:01.014Z,6.12
2023-01-05T20:23:36.808Z,6.12
2023-01-05T20:26:11.689Z,6.08
2023-01-05T20:28:38.216Z,6.10
2023-01-05T20:31:05.490Z,6.15
2023-01-05T20:33:32.140Z,6.16
2023-01-05T20:35:58.608Z,6.17
2023-01-05T20:38:25.310Z,6.21
2023-01-05T20:40:51.769Z,6.23
2023-01-05T20:43:18.266Z,6.24
2023-01-05T20:45:44.789Z,6.26
2023-01-05T20:48:11.372Z,6.30
2023-01-05T20:50:37.932Z,6.29
2023-01-05T20:53:04.388Z,6.33
2023-01-05T20:55:30.939Z,6.35
2023-01-05T20:57:57.389Z,6.32
2023-01-05T21:00:25.271Z,6.32
2023-01-05T21:02:52.731Z,6.33
2023-01-05T21:05:19.419Z,6.35
2023-01-05T21:07:46.733Z,6.34
2023-01-05T21:10:13.319Z,6.38
2023-01-05T21:12:39.804Z,6.40
2023-01-05T21:15:06.588Z,6.43
2023-01-05T21:17:33.704Z,6.42
2023-01-05T21:20:00.201Z,6.42
2023-01-05T21:22:27.344Z,6.43
2023-01-05T21:24:53.820Z,6.41
2023-01-05T21:27:20.286Z,6.43
2023-01-05T21:29:46.734Z,6.41
2023-01-05T21:32:13.215Z,6.39
2023-01-05T21:34:39.667Z,6.40
2023-01-05T21:37:06.141Z,6.37
2023-01-05T21:39:32.679Z,6.32
2023-01-05T21:42:17.536Z,6.31
2023-01-05T21:44:44.071Z,6.31
2023-01-05T21:47:10.626Z,6.29
2023-01-05T21:49:37.060Z,6.30
2023-01-05T21:52:22.840Z,6.30
2023-01-05T21:55:07.761Z,6.25
2023-01-05T21:57:34.267Z,6.26
2023-01-05T22:00:00.731Z,6.24
2023-01-05T22:02:27.205Z,6.22
2023-01-05T22:04:53.937Z,6.13
2023-01-05T22:07:20.442Z,6.12
2023-01-05T22:09:46.951Z,6.06
2023-01-05T22:12:13.433Z,6.04
2023-01-05T22:14:39.931Z,5.99
2023-01-05T22:17:07.855Z,5.99
2023-01-05T22:19:34.372Z,5.99
2023-01-05T22:22:00.860Z,5.93
2023-01-05T22:24:27.291Z,5.90
2023-01-05T22:26:53.863Z,5.93
2023-01-05T22:29:20.443Z,5.95
2023-01-05T22:31:47.129Z,5.88
2023-01-05T22:34:13.661Z,5.82
2023-01-05T22:36:40.256Z,5.79
2023-01-05T22:39:06.787Z,5.65
2023-01-05T22:41:33.273Z,5.71
2023-01-05T22:44:02.384Z,5.65
2023-01-05T22:46:29.515Z,5.56
2023-01-05T22:48:56.563Z,5.48
2023-01-05T22:51:26.057Z,5.36
2023-01-05T22:53:52.744Z,5.34
2023-01-05T22:56:20.116Z,5.27
2023-01-05T22:58:46.607Z,5.22
2023-01-05T23:01:14.504Z,5.13
2023-01-05T23:03:41.523Z,5.08
2023-01-05T23:06:08.218Z,5.14
2023-01-05T23:08:35.823Z,5.18
2023-01-05T23:11:03.727Z,5.16
2023-01-05T23:13:30.204Z,5.14
2023-01-05T23:15:56.976Z,5.09
2023-01-05T23:18:23.907Z,5.02
2023-01-05T23:20:57.588Z,5.01
2023-01-05T23:23:24.716Z,4.97
2023-01-05T23:25:51.821Z,5.05
2023-01-05T23:28:18.839Z,5.12
2023-01-05T23:30:46.144Z,5.15
2023-01-05T23:33:13.100Z,5.14
2023-01-05T23:35:39.737Z,5.16
2023-01-05T23:38:06.280Z,5.06
2023-01-05T23:40:32.740Z,4.99
2023-01-05T23:42:59.240Z,4.92
2023-01-05T23:45:25.689Z,5.00
2023-01-05T23:47:52.143Z,5.05
2023-01-05T23:50:18.566Z,5.07
2023-01-05T23:52:45.026Z,5.04
2023-01-05T23:55:11.469Z,5.07
2023-01-05T23:57:37.932Z,5.06
